createdAt,value
2022-10-11T00:01:00.374Z,7.65
2022-10-11T00:03:26.832Z,7.62
2022-10-11T00:05:53.147Z,7.59
2022-10-11T00:08:19.467Z,7.57
2022-10-11T00:10:46.030Z,7.54
2022-10-11T00:13:12.724Z,7.56
2022-10-11T00:15:40.332Z,7.57
2022-10-11T00:18:06.620Z,7.56
2022-10-11T00:20:32.911Z,7.54
2022-10-11T00:22:59.185Z,7.48
2022-10-11T00:25:25.457Z,7.42
2022-10-11T00:27:51.740Z,7.36
2022-10-11T00:30:18.072Z,7.31
2022-10-11T00:32:45.713Z,7.28
2022-10-11T00:35:12.035Z,7.31
2022-10-11T00:37:38.661Z,7.29
2022-10-11T00:40:06.207Z,7.25
2022-10-11T00:42:32.503Z,7.21
2022-10-11T00:45:13.665Z,7.19
2022-10-11T00:47:40.732Z,7.15
2022-10-11T00:50:09.728Z,7.08
2022-10-11T00:52:37.673Z,6.96
2022-10-11T00:55:05.708Z,6.91
2022-10-11T00:57:33.672Z,6.85
2022-10-11T01:00:00.173Z,6.73
2022-10-11T01:02:27.399Z,6.70
2022-10-11T01:05:11.410Z,6.70
2022-10-11T01:07:42.651Z,6.60
2022-10-11T01:10:09.163Z,6.60
2022-10-11T01:12:36.353Z,6.61
2022-10-11T01:15:13.853Z,6.60
2022-10-11T01:17:44.869Z,6.60
2022-10-11T01:20:23.760Z,6.55
2022-10-11T01:23:07.027Z,6.43
2022-10-11T01:25:37.690Z,6.37
2022-10-11T01:28:24.913Z,6.40
2022-10-11T01:30:54.820Z,6.46
2022-10-11T01:33:27.236Z,6.49
2022-10-11T01:35:57.589Z,6.51
2022-10-11T01:38:27.167Z,6.45
2022-10-11T01:40:56.509Z,6.39
2022-10-11T01:43:23.976Z,6.32
2022-10-11T01:45:51.529Z,6.27
2022-10-11T01:48:19.221Z,6.26
2022-10-11T01:50:46.585Z,6.18
2022-10-11T01:53:18.717Z,6.17
2022-10-11T01:55:48.682Z,6.18
2022-10-11T01:58:22.230Z,6.16
2022-10-11T02:00:52.217Z,6.15
2022-10-11T02:03:24.482Z,6.19
2022-10-11T02:05:56.003Z,6.20
2022-10-11T02:08:25.044Z,6.21
2022-10-11T02:10:54.421Z,6.17
2022-10-11T02:13:23.813Z,6.15
2022-10-11T02:15:50.481Z,6.17
2022-10-11T02:18:18.955Z,6.18
2022-10-11T02:20:47.666Z,6.15
2022-10-11T02:23:15.477Z,6.11
2022-10-11T02:25:42.744Z,6.09
2022-10-11T02:28:11.053Z,6.04
2022-10-11T02:30:38.651Z,6.03
2022-10-11T02:33:06.673Z,6.06
2022-10-11T02:35:37.046Z,6.06
2022-10-11T02:38:08.762Z,5.98
2022-10-11T02:40:35.812Z,5.98
2022-10-11T02:43:04.758Z,5.94
2022-10-11T02:45:33.620Z,5.96
2022-10-11T02:48:00.271Z,5.97
2022-10-11T02:50:27.009Z,5.92
2022-10-11T02:52:53.296Z,5.84
2022-10-11T02:55:21.002Z,5.90
2022-10-11T02:57:47.325Z,5.91
2022-10-11T03:00:14.386Z,5.90
2022-10-11T03:02:40.730Z,5.87
2022-10-11T03:05:07.339Z,5.87
2022-10-11T03:07:33.662Z,5.88
2022-10-11T03:09:59.928Z,5.85
2022-10-11T03:12:27.566Z,5.84
2022-10-11T03:14:53.834Z,5.85
2022-10-11T03:17:35.490Z,5.86
2022-10-11T03:20:02.846Z,5.84
2022-10-11T03:22:29.130Z,5.88
2022-10-11T03:24:57.521Z,5.86
2022-10-11T03:27:28.684Z,5.87
2022-10-11T03:29:54.977Z,5.86
2022-10-11T03:32:21.256Z,5.89
2022-10-11T03:34:47.529Z,5.82
2022-10-11T03:37:13.800Z,5.82
2022-10-11T03:39:40.110Z,5.83
2022-10-11T03:42:06.430Z,5.82
2022-10-11T03:44:34.036Z,5.75
2022-10-11T03:47:00.299Z,5.74
2022-10-11T03:49:26.591Z,5.68
2022-10-11T03:51:52.869Z,5.61
2022-10-11T03:54:19.134Z,5.45
2022-10-11T03:56:45.413Z,5.31
2022-10-11T03:59:11.699Z,5.24
2022-10-11T04:01:39.393Z,5.20
2022-10-11T04:04:05.685Z,5.19
2022-10-11T04:06:32.247Z,5.21
2022-10-11T04:08:58.533Z,5.19
2022-10-11T04:11:24.826Z,5.18
2022-10-11T04:13:51.149Z,5.19
2022-10-11T04:16:17.437Z,5.16
2022-10-11T04:18:45.098Z,5.08
2022-10-11T04:21:11.386Z,5.04
2022-10-11T04:23:37.656Z,5.06
2022-10-11T04:26:04.531Z,5.09
2022-10-11T04:28:31.024Z,5.12
2022-10-11T04:30:57.325Z,5.10
2022-10-11T04:33:23.632Z,5.06
2022-10-11T04:35:54.350Z,5.05
2022-10-11T04:38:20.715Z,5.07
2022-10-11T04:40:46.985Z,5.06
2022-10-11T04:43:13.295Z,5.04
2022-10-11T04:45:39.594Z,5.03
2022-10-11T04:48:06.234Z,5.01
2022-10-11T04:50:32.593Z,5.07
2022-10-11T04:53:00.260Z,5.10
2022-10-11T04:55:26.558Z,5.09
2022-10-11T04:57:52.853Z,5.05
2022-10-11T05:00:19.123Z,5.03
2022-10-11T05:02:45.394Z,4.97
2022-10-11T05:05:11.680Z,4.92
2022-10-11T05:07:37.945Z,4.89
2022-10-11T05:10:06.403Z,4.88
2022-10-11T05:12:32.693Z,4.84
2022-10-11T05:14:58.965Z,4.74
2022-10-11T05:17:25.321Z,4.81
2022-10-11T05:19:51.596Z,4.85
2022-10-11T05:22:17.895Z,4.89
2022-10-11T05:24:44.213Z,4.91
2022-10-11T05:27:11.819Z,4.94
2022-10-11T05:29:38.160Z,4.93
2022-10-11T05:32:04.650Z,4.92
2022-10-11T05:34:30.932Z,4.93
2022-10-11T05:36:57.280Z,4.95
2022-10-11T05:39:23.616Z,4.94
2022-10-11T05:41:49.904Z,4.91
2022-10-11T05:44:17.566Z,4.89
2022-10-11T05:46:43.869Z,4.81
2022-10-11T05:49:10.155Z,4.67
2022-10-11T05:51:36.434Z,4.68
2022-10-11T05:54:02.708Z,4.73
2022-10-11T05:56:28.988Z,4.74
2022-10-11T05:58:59.946Z,4.72
2022-10-11T06:01:29.846Z,4.67
2022-10-11T06:03:56.259Z,4.60
2022-10-11T06:06:22.931Z,4.60
2022-10-11T06:08:49.652Z,4.64
2022-10-11T06:11:17.206Z,4.68
2022-10-11T06:13:43.557Z,4.68
2022-10-11T06:16:10.242Z,4.74
2022-10-11T06:18:37.872Z,4.83
2022-10-11T06:21:04.512Z,4.90
2022-10-11T06:23:31.044Z,4.97
2022-10-11T06:25:57.529Z,5.04
2022-10-11T06:28:23.925Z,5.09
2022-10-11T06:30:50.242Z,5.12
2022-10-11T06:33:16.561Z,5.16
2022-10-11T06:35:44.176Z,5.17
2022-10-11T06:38:10.480Z,5.27
2022-10-11T06:40:36.777Z,5.32
2022-10-11T06:43:03.206Z,5.37
2022-10-11T06:45:29.520Z,5.36
2022-10-11T06:47:55.799Z,5.34
2022-10-11T06:50:40.769Z,5.32
2022-10-11T06:53:09.863Z,5.38
2022-10-11T06:55:36.151Z,5.42
2022-10-11T06:58:02.417Z,5.46
2022-10-11T07:00:28.703Z,5.52
2022-10-11T07:02:54.980Z,5.58
2022-10-11T07:05:21.223Z,5.67
2022-10-11T07:07:47.514Z,5.75
2022-10-11T07:10:15.285Z,5.82
2022-10-11T07:12:43.054Z,5.89
2022-10-11T07:15:09.862Z,5.95
2022-10-11T07:17:36.148Z,5.99
2022-10-11T07:20:02.420Z,6.06
2022-10-11T07:22:28.749Z,6.16
2022-10-11T07:24:55.058Z,6.26
2022-10-11T07:27:23.307Z,6.34
2022-10-11T07:29:49.588Z,6.42
2022-10-11T07:32:15.902Z,6.48
2022-10-11T07:34:42.522Z,6.53
2022-10-11T07:37:08.816Z,6.60
2022-10-11T07:39:35.262Z,6.68
2022-10-11T07:42:01.544Z,6.75
2022-10-11T07:44:29.278Z,6.83
2022-10-11T07:46:56.045Z,6.92
2022-10-11T07:49:22.344Z,7.00
2022-10-11T07:51:48.765Z,7.05
2022-10-11T07:54:15.066Z,7.10
2022-10-11T07:56:41.340Z,7.17
2022-10-11T07:59:07.624Z,7.24
2022-10-11T08:01:35.301Z,7.31
2022-10-11T08:04:01.637Z,7.40
2022-10-11T08:06:29.064Z,7.48
2022-10-11T08:08:56.417Z,7.57
2022-10-11T08:11:23.554Z,7.66
2022-10-11T08:13:49.862Z,7.77
2022-10-11T08:16:16.577Z,7.90
2022-10-11T08:18:44.206Z,8.01
2022-10-11T08:21:11.998Z,8.14
2022-10-11T08:23:38.553Z,8.27
2022-10-11T08:26:05.475Z,8.39
2022-10-11T08:28:32.659Z,8.53
2022-10-11T08:30:59.072Z,8.68
2022-10-11T08:33:26.062Z,8.85
2022-10-11T08:35:54.007Z,8.96
2022-10-11T08:38:20.741Z,9.07
2022-10-11T08:40:47.624Z,9.19
2022-10-11T08:43:18.335Z,9.37
2022-10-11T08:45:48.969Z,9.50
2022-10-11T08:48:17.643Z,9.68
2022-10-11T08:50:46.531Z,9.85
2022-10-11T08:53:18.755Z,10.04
2022-10-11T08:55:46.723Z,10.21
2022-10-11T08:58:14.782Z,10.34
2022-10-11T09:00:41.454Z,10.50
2022-10-11T09:03:15.012Z,10.64
2022-10-11T09:05:51.004Z,10.82
2022-10-11T09:08:20.509Z,10.98
2022-10-11T09:10:57.107Z,11.04
2022-10-11T09:13:36.103Z,11.18
2022-10-11T09:16:08.527Z,11.29
2022-10-11T09:18:42.169Z,11.42
2022-10-11T09:21:13.308Z,11.58
2022-10-11T09:23:53.056Z,11.73
2022-10-11T09:26:21.849Z,11.83
2022-10-11T09:28:56.218Z,11.90
2022-10-11T09:31:26.598Z,12.04
2022-10-11T09:33:52.913Z,12.15
2022-10-11T09:36:22.593Z,12.21
2022-10-11T09:38:54.331Z,12.30
2022-10-11T09:41:26.143Z,12.37
2022-10-11T09:43:52.531Z,12.44
2022-10-11T09:46:20.845Z,12.51
2022-10-11T09:48:47.310Z,12.59
2022-10-11T09:51:16.690Z,12.64
2022-10-11T09:53:51.759Z,12.68
2022-10-11T09:56:18.081Z,12.83
2022-10-11T09:58:44.401Z,12.88
2022-10-11T10:01:11.878Z,12.97
2022-10-11T10:03:38.982Z,13.12
2022-10-11T10:06:07.434Z,13.21
2022-10-11T10:08:34.131Z,13.34
2022-10-11T10:11:03.021Z,13.37
2022-10-11T10:13:34.738Z,13.39
2022-10-11T10:16:01.066Z,13.35
2022-10-11T10:18:29.641Z,13.34
2022-10-11T10:20:57.192Z,13.37
2022-10-11T10:23:24.676Z,13.45
2022-10-11T10:25:51.012Z,13.58
2022-10-11T10:28:20.345Z,13.64
2022-10-11T10:30:50.576Z,13.63
2022-10-11T10:33:17.006Z,13.68
2022-10-11T10:35:46.084Z,13.71
2022-10-11T10:38:15.405Z,13.76
2022-10-11T10:40:43.538Z,13.75
2022-10-11T10:43:12.628Z,13.73
2022-10-11T10:45:51.307Z,13.75
2022-10-11T10:48:22.786Z,13.75
2022-10-11T10:50:52.411Z,13.81
2022-10-11T10:53:23.000Z,13.76
2022-10-11T10:55:52.460Z,13.66
2022-10-11T10:58:25.025Z,13.68
2022-10-11T11:00:55.861Z,13.67
2022-10-11T11:03:24.023Z,13.61
2022-10-11T11:05:55.704Z,13.54
2022-10-11T11:08:30.432Z,13.50
2022-10-11T11:11:01.338Z,13.48
2022-10-11T11:13:33.100Z,13.52
2022-10-11T11:16:05.817Z,13.58
2022-10-11T11:18:37.687Z,13.59
2022-10-11T11:21:11.048Z,13.63
2022-10-11T11:23:40.888Z,13.63
2022-10-11T11:26:12.267Z,13.58
2022-10-11T11:28:52.244Z,13.57
2022-10-11T11:31:30.054Z,13.59
2022-10-11T11:34:00.407Z,13.56
2022-10-11T11:36:29.146Z,13.57
2022-10-11T11:38:57.831Z,13.60
2022-10-11T11:41:26.049Z,13.62
2022-10-11T11:43:58.350Z,13.57
2022-10-11T11:46:28.801Z,13.56
2022-10-11T11:48:58.568Z,13.56
2022-10-11T11:51:30.412Z,13.56
2022-10-11T11:54:03.130Z,13.64
2022-10-11T11:56:33.108Z,13.69
2022-10-11T11:59:05.300Z,13.73
2022-10-11T12:01:37.680Z,13.77
2022-10-11T12:04:05.145Z,13.82
2022-10-11T12:06:32.448Z,13.88
2022-10-11T12:09:05.086Z,13.96
2022-10-11T12:11:45.926Z,14.05
2022-10-11T12:14:17.249Z,14.19
2022-10-11T12:16:58.433Z,14.36
2022-10-11T12:19:32.033Z,14.52
2022-10-11T12:22:13.221Z,14.58
2022-10-11T12:24:52.597Z,14.54
2022-10-11T12:27:33.779Z,14.44
2022-10-11T12:30:00.101Z,14.35
2022-10-11T12:32:47.204Z,14.38
2022-10-11T12:35:37.820Z,14.47
2022-10-11T12:38:05.467Z,14.50
2022-10-11T12:40:36.460Z,14.55
2022-10-11T12:43:10.143Z,14.54
2022-10-11T12:45:36.557Z,14.51
2022-10-11T12:48:08.609Z,14.50
2022-10-11T12:50:43.942Z,14.54
2022-10-11T12:53:17.158Z,14.57
2022-10-11T12:55:49.644Z,14.56
2022-10-11T12:58:26.940Z,14.61
2022-10-11T13:01:16.993Z,14.59
2022-10-11T13:03:44.601Z,14.57
2022-10-11T13:06:15.557Z,14.50
2022-10-11T13:08:43.377Z,14.44
2022-10-11T13:11:11.335Z,14.36
2022-10-11T13:13:39.369Z,14.33
2022-10-11T13:16:09.178Z,14.33
2022-10-11T13:18:35.674Z,14.46
2022-10-11T13:21:02.489Z,14.39
2022-10-11T13:23:35.425Z,14.38
2022-10-11T13:26:02.336Z,14.32
2022-10-11T13:28:32.777Z,14.25
2022-10-11T13:31:03.173Z,14.26
2022-10-11T13:33:31.412Z,14.32
2022-10-11T13:35:57.807Z,14.37
2022-10-11T13:38:26.556Z,14.35
2022-10-11T13:40:55.343Z,14.35
2022-10-11T13:43:23.338Z,14.25
2022-10-11T13:45:49.731Z,14.16
2022-10-11T13:48:16.513Z,14.06
2022-10-11T13:50:42.876Z,13.94
2022-10-11T13:53:22.298Z,13.87
2022-10-11T13:55:50.373Z,13.78
2022-10-11T13:58:21.230Z,13.71
2022-10-11T14:00:53.060Z,13.63
2022-10-11T14:03:20.790Z,13.55
2022-10-11T14:05:53.252Z,13.52
2022-10-11T14:08:21.828Z,13.46
2022-10-11T14:10:50.719Z,13.44
2022-10-11T14:13:30.151Z,13.41
2022-10-11T14:16:00.681Z,13.39
2022-10-11T14:18:41.893Z,13.37
2022-10-11T14:21:23.106Z,13.38
2022-10-11T14:23:50.727Z,13.39
2022-10-11T14:26:18.871Z,13.44
2022-10-11T14:28:49.214Z,13.55
2022-10-11T14:31:15.757Z,13.63
2022-10-11T14:33:42.128Z,13.71
2022-10-11T14:36:08.842Z,13.79
2022-10-11T14:38:35.337Z,13.87
2022-10-11T14:41:01.622Z,13.94
2022-10-11T14:43:27.934Z,13.99
2022-10-11T14:45:55.587Z,14.04
2022-10-11T14:48:43.125Z,14.12
2022-10-11T14:51:12.535Z,14.31
2022-10-11T14:53:40.964Z,14.35
2022-10-11T14:56:07.957Z,14.32
2022-10-11T14:58:34.533Z,14.31
2022-10-11T15:01:02.174Z,14.26
2022-10-11T15:03:28.473Z,14.20
2022-10-11T15:05:54.939Z,14.23
2022-10-11T15:08:21.235Z,14.29
2022-10-11T15:10:47.542Z,14.29
2022-10-11T15:13:13.892Z,14.32
2022-10-11T15:15:40.320Z,14.52
2022-10-11T15:18:09.413Z,14.64
2022-10-11T15:20:37.310Z,14.72
2022-10-11T15:23:04.649Z,14.55
2022-10-11T15:25:31.328Z,14.36
2022-10-11T15:27:58.040Z,14.25
2022-10-11T15:30:25.524Z,14.38
2022-10-11T15:32:54.802Z,14.32
2022-10-11T15:35:22.773Z,14.19
2022-10-11T15:37:51.435Z,14.26
2022-10-11T15:40:18.995Z,14.41
2022-10-11T15:42:45.307Z,14.33
2022-10-11T15:45:11.713Z,14.30
2022-10-11T15:47:38.104Z,14.23
2022-10-11T15:50:11.269Z,14.22
2022-10-11T15:52:38.941Z,14.07
2022-10-11T15:55:05.434Z,13.95
2022-10-11T15:57:31.749Z,13.83
2022-10-11T15:59:58.055Z,13.75
2022-10-11T16:02:28.933Z,13.78
2022-10-11T16:04:55.292Z,13.79
2022-10-11T16:07:21.590Z,13.68
2022-10-11T16:09:49.221Z,13.55
2022-10-11T16:12:15.519Z,13.45
2022-10-11T16:14:46.969Z,13.38
2022-10-11T16:17:13.782Z,13.32
2022-10-11T16:19:40.192Z,13.32
2022-10-11T16:22:06.716Z,13.30
2022-10-11T16:24:33.057Z,13.22
2022-10-11T16:27:00.864Z,13.13
2022-10-11T16:29:27.248Z,13.02
2022-10-11T16:31:53.553Z,12.95
2022-10-11T16:34:19.831Z,12.87
2022-10-11T16:36:46.130Z,12.77
2022-10-11T16:39:13.337Z,12.72
2022-10-11T16:41:41.372Z,12.65
2022-10-11T16:44:11.491Z,12.58
2022-10-11T16:46:37.836Z,12.51
2022-10-11T16:49:05.100Z,12.43
2022-10-11T16:51:31.437Z,12.32
2022-10-11T16:53:57.797Z,12.23
2022-10-11T16:56:24.189Z,12.14
2022-10-11T16:58:51.267Z,12.08
2022-10-11T17:01:19.031Z,11.99
2022-10-11T17:03:45.510Z,11.90
2022-10-11T17:06:11.807Z,11.84
2022-10-11T17:08:38.090Z,11.77
2022-10-11T17:11:05.045Z,11.71
2022-10-11T17:13:31.697Z,11.66
2022-10-11T17:15:58.042Z,11.61
2022-10-11T17:18:25.753Z,11.57
2022-10-11T17:21:00.032Z,11.50
2022-10-11T17:23:26.343Z,11.40
2022-10-11T17:25:52.773Z,11.30
2022-10-11T17:28:19.117Z,11.23
2022-10-11T17:30:52.026Z,11.17
2022-10-11T17:33:18.311Z,11.11
2022-10-11T17:35:45.947Z,11.06
2022-10-11T17:38:12.387Z,11.02
2022-10-11T17:40:38.696Z,10.93
2022-10-11T17:43:04.988Z,10.89
2022-10-11T17:45:31.513Z,10.84
2022-10-11T17:47:57.826Z,10.78
2022-10-11T17:50:24.135Z,10.71
2022-10-11T17:52:51.785Z,10.59
2022-10-11T17:55:18.073Z,10.48
2022-10-11T17:57:44.356Z,10.41
2022-10-11T18:00:11.064Z,10.25
2022-10-11T18:02:37.380Z,10.20
2022-10-11T18:05:03.888Z,10.15
2022-10-11T18:07:30.280Z,10.12
2022-10-11T18:09:57.911Z,10.07
2022-10-11T18:12:24.223Z,10.04
2022-10-11T18:14:50.520Z,10.00
2022-10-11T18:17:16.831Z,9.97
2022-10-11T18:19:43.122Z,9.92
2022-10-11T18:22:09.420Z,9.86
2022-10-11T18:24:35.947Z,9.77
2022-10-11T18:27:03.784Z,9.74
2022-10-11T18:29:30.077Z,9.72
2022-10-11T18:31:56.371Z,9.70
2022-10-11T18:34:22.663Z,9.65
2022-10-11T18:36:48.963Z,9.63
2022-10-11T18:39:15.299Z,9.60
2022-10-11T18:41:41.762Z,9.57
2022-10-11T18:44:11.181Z,9.48
2022-10-11T18:46:37.470Z,9.45
2022-10-11T18:49:03.799Z,9.37
2022-10-11T18:51:31.051Z,9.26
2022-10-11T18:53:57.580Z,9.21
2022-10-11T18:56:24.129Z,9.15
2022-10-11T18:58:51.197Z,9.02
2022-10-11T19:01:19.645Z,8.93
2022-10-11T19:03:46.835Z,8.89
2022-10-11T19:06:14.649Z,8.91
2022-10-11T19:08:40.946Z,8.89
2022-10-11T19:11:08.339Z,8.85
2022-10-11T19:13:35.105Z,8.85
2022-10-11T19:16:05.772Z,8.83
2022-10-11T19:18:33.611Z,8.82
2022-10-11T19:21:03.176Z,8.81
2022-10-11T19:23:33.130Z,8.82
2022-10-11T19:25:59.407Z,8.76
2022-10-11T19:28:26.943Z,8.72
2022-10-11T19:30:53.295Z,8.68
2022-10-11T19:33:21.636Z,8.70
2022-10-11T19:35:54.423Z,8.69
2022-10-11T19:40:47.919Z,8.61
2022-10-11T19:43:14.229Z,8.54
2022-10-11T19:45:40.504Z,8.48
2022-10-11T19:48:06.804Z,8.42
2022-10-11T19:50:33.108Z,8.37
2022-10-11T19:53:00.724Z,8.34
2022-10-11T19:55:27.017Z,8.35
2022-10-11T19:57:53.324Z,8.37
2022-10-11T20:00:19.732Z,8.33
2022-10-11T20:02:46.014Z,8.26
2022-10-11T20:05:12.291Z,8.21
2022-10-11T20:07:38.583Z,8.21
2022-10-11T20:10:06.515Z,8.18
2022-10-11T20:12:33.400Z,8.18
2022-10-11T20:14:59.771Z,8.17
2022-10-11T20:17:27.482Z,8.14
2022-10-11T20:19:53.781Z,8.10
2022-10-11T20:22:20.049Z,7.99
2022-10-11T20:24:46.404Z,7.96
2022-10-11T20:27:14.012Z,7.98
2022-10-11T20:29:40.314Z,7.98
2022-10-11T20:32:06.590Z,7.96
2022-10-11T20:34:32.902Z,7.91
2022-10-11T20:36:59.207Z,7.89
2022-10-11T20:39:25.603Z,7.86
2022-10-11T20:41:51.899Z,7.81
2022-10-11T20:44:19.539Z,7.78
2022-10-11T20:46:45.832Z,7.76
2022-10-11T20:49:12.382Z,7.75
2022-10-11T20:51:39.988Z,7.79
2022-10-11T20:54:06.317Z,7.76
2022-10-11T20:56:32.673Z,7.67
2022-10-11T20:58:58.968Z,7.59
2022-10-11T21:01:27.598Z,7.47
2022-10-11T21:03:54.173Z,7.37
2022-10-11T21:06:20.753Z,7.36
2022-10-11T21:08:47.213Z,7.30
2022-10-11T21:11:13.528Z,7.27
2022-10-11T21:13:39.813Z,7.28
2022-10-11T21:16:06.959Z,7.28
2022-10-11T21:18:34.618Z,7.34
2022-10-11T21:21:04.663Z,7.35
2022-10-11T21:23:30.960Z,7.28
2022-10-11T21:25:59.586Z,7.24
2022-10-11T21:28:25.957Z,7.24
2022-10-11T21:30:52.276Z,7.19
2022-10-11T21:33:18.560Z,7.14
2022-10-11T21:35:46.193Z,7.12
2022-10-11T21:38:12.503Z,7.11
2022-10-11T21:40:39.003Z,7.09
2022-10-11T21:43:05.308Z,7.05
2022-10-11T21:45:31.575Z,7.01
2022-10-11T21:47:58.058Z,6.97
2022-10-11T21:50:24.338Z,6.94
2022-10-11T21:52:51.971Z,6.95
2022-10-11T21:55:18.278Z,6.89
2022-10-11T21:57:44.583Z,6.86
2022-10-11T22:00:11.589Z,6.84
2022-10-11T22:02:37.948Z,6.80
2022-10-11T22:05:04.387Z,6.80
2022-10-11T22:07:30.673Z,6.82
2022-10-11T22:09:58.315Z,6.74
2022-10-11T22:12:24.686Z,6.69
2022-10-11T22:14:50.962Z,6.66
2022-10-11T22:17:18.968Z,6.64
2022-10-11T22:19:45.249Z,6.67
2022-10-11T22:22:11.545Z,6.63
2022-10-11T22:24:37.849Z,6.64
2022-10-11T22:27:05.475Z,6.65
2022-10-11T22:29:34.220Z,6.65
2022-10-11T22:32:00.823Z,6.61
2022-10-11T22:34:29.837Z,6.51
2022-10-11T22:36:56.092Z,6.47
2022-10-11T22:39:22.390Z,6.41
2022-10-11T22:41:48.661Z,6.29
2022-10-11T22:44:16.343Z,6.26
2022-10-11T22:46:42.646Z,6.23
2022-10-11T22:49:08.945Z,6.19
2022-10-11T22:51:35.243Z,6.20
2022-10-11T22:54:01.522Z,6.19
2022-10-11T22:56:27.815Z,6.17
2022-10-11T22:58:54.104Z,6.10
2022-10-11T23:01:21.746Z,6.03
2022-10-11T23:03:48.394Z,6.03
2022-10-11T23:06:14.760Z,6.09
2022-10-11T23:08:41.048Z,6.15
2022-10-11T23:11:07.926Z,6.20
2022-10-11T23:13:34.560Z,6.19
2022-10-11T23:18:33.216Z,6.25
2022-10-11T23:20:59.530Z,6.25
2022-10-11T23:23:25.798Z,6.25
2022-10-11T23:25:59.619Z,6.27
2022-10-11T23:28:25.970Z,6.24
2022-10-11T23:30:52.279Z,6.21
2022-10-11T23:33:18.570Z,6.15
2022-10-11T23:35:46.233Z,6.04
2022-10-11T23:38:12.522Z,6.06
2022-10-11T23:40:38.790Z,6.02
2022-10-11T23:43:05.086Z,6.01
2022-10-11T23:45:31.370Z,5.98
2022-10-11T23:47:57.655Z,6.00
2022-10-11T23:50:23.943Z,6.01
2022-10-11T23:52:51.558Z,6.03
2022-10-11T23:55:17.868Z,6.02
2022-10-11T23:57:44.281Z,5.99
